Skip Navigation Links
NOAA logo - Click to go to the NOAA homepage
NOAA's National Weather Service
Alaska Aviation Weather Unit
  NWS logo - Click to go to the NWS homepage
Left Navbar Graphic     12 AKDT = 20 GMT

   
NOAA is celebrating 200 years of science, service, and stewardship. Visit the NOAA 200th celebration Web site to learn more.
USA.gov is the U.S. Government's official Web portal to all Federal, state and local government Web resources and services.
Facebook
NWS on Facebook

Important Change Regarding the AAWU Web Presence

 

Over the last several months, the AAWU has been working to navigate its webpages to a nationally supported server. Security, as well as other needs, have necessitated the change.  We have been given an extension for the site changeover while we diligently work at addressing feedback received. As of July 14, 2017, aawu.arh.noaa.gov will be discontinued. The new AAWU web address is weather.gov/aawu. It is now live and will run in-parallel with the old site until it is discontinued on July 14, 2017. Please continue to send any feedback or questions regarding the new webpages to nws.ar.aawu.webauthors@noaa.gov.  Thank you for your patience during this time of transition.
AAWU Home :: Display TAF Add Bookmark
TAF PAFA 251816Z 2518/2624 18003KT P6SM VCSH BKN035 BKN045
      OVC080
     FM252200 21004KT P6SM -SHRA SCT030 BKN060
     FM260200 22004KT P6SM -SHRA SCT025 BKN050
     FM260600 VRB03KT P6SM VCSH BKN050=
METAR PAFA 251453Z 18004KT 10SM BKN030 BKN045 OVC060 13/12 A2995=

METAR PAFA 251553Z 19005KT 10SM BKN030 BKN045 OVC060 13/12 A2995=

METAR PAFA 251653Z 19003KT 10SM SCT030 BKN045 OVC075 13/12 A2995=

METAR PAFA 251753Z 18003KT 10SM BKN035 BKN045 OVC075 14/12 A2994=

METAR PAFA 251853Z 20003KT 10SM FEW012 BKN042 OVC075 14/13 A2994=

METAR PAFA 251953Z 20005KT 10SM FEW015 BKN042 BKN075 16/12 A2993 RMK AO2
     SLP138 T01560122=


NOAA's National Weather Service
Alaska Aviation Weather Unit
6930 Sand Lake Road
Anchorage, AK 99502-1845
Disclaimer
Credits
Glossary
Privacy Policy
About Us
Career Opportunities
Contact AAWU Internet Services Site last modified: April, 17th 2012